Time;durP1;ratioP1;P1;durP2;ratioP2;P2;SDS_P1;SDS_P2;PMS_P1;PMS_P2;Temp;Humidity;BMP_temperature;BMP_pressure;BME280_temperature;BME280_humidity;BME280_pressure;Samples;Min_cycle;Max_cycle;Signal;HPM_P1;HPM_P2
2023/08/08 00:01:02;;;;;;;3.60;1.40;;;;;;;;;;5059076;28;20379;-76
2023/08/08 00:03:27;;;;;;;3.22;1.40;;;;;;;;;;5058296;28;20030;-76
2023/08/08 00:05:52;;;;;;;4.93;1.30;;;;;;;;;;5076151;28;20040;-76
2023/08/08 00:08:17;;;;;;;6.18;1.50;;;;;;;;;;5076184;28;20093;-76
2023/08/08 00:10:43;;;;;;;4.07;1.60;;;;;;;;;;5076618;28;20028;-76
2023/08/08 00:13:08;;;;;;;5.97;1.67;;;;;;;;;;5075448;28;20024;-76
2023/08/08 00:15:33;;;;;;;4.20;1.60;;;;;;;;;;5057684;28;20024;-76
2023/08/08 00:17:58;;;;;;;5.28;1.52;;;;;;;;;;5075504;28;20024;-76
2023/08/08 00:20:24;;;;;;;4.30;1.73;;;;;;;;;;5056806;28;20073;-76
2023/08/08 00:22:49;;;;;;;3.92;1.77;;;;;;;;;;5057922;28;20381;-76
2023/08/08 00:25:14;;;;;;;5.70;1.20;;;;;;;;;;5076018;28;20081;-76
2023/08/08 00:27:43;;;;;;;5.78;1.75;;;;;;;;;;5075853;28;20024;-76
2023/08/08 00:30:10;;;;;;;5.28;1.52;;;;;;;;;;5074784;28;20031;-76
2023/08/08 00:32:35;;;;;;;3.28;1.50;;;;;;;;;;5057692;28;20016;-76
2023/08/08 00:35:01;;;;;;;4.05;1.42;;;;;;;;;;5057683;28;20031;-76
2023/08/08 00:37:26;;;;;;;2.42;1.30;;;;;;;;;;5075303;28;20124;-76
2023/08/08 00:39:51;;;;;;;2.10;1.30;;;;;;;;;;5057020;28;20039;-75
2023/08/08 00:42:16;;;;;;;4.17;1.43;;;;;;;;;;5074716;28;20288;-75
2023/08/08 00:44:42;;;;;;;3.83;1.60;;;;;;;;;;5074759;28;20801;-76
2023/08/08 00:47:09;;;;;;;4.20;1.83;;;;;;;;;;5057504;28;20760;-76
2023/08/08 00:49:34;;;;;;;5.03;1.48;;;;;;;;;;5075794;28;20028;-77
2023/08/08 00:52:00;;;;;;;3.10;1.38;;;;;;;;;;5058039;28;20078;-77
2023/08/08 00:54:26;;;;;;;3.83;1.30;;;;;;;;;;5075909;28;20107;-76
2023/08/08 00:56:51;;;;;;;3.00;1.38;;;;;;;;;;5076217;28;20468;-74
2023/08/08 00:59:18;;;;;;;3.83;1.30;;;;;;;;;;5057111;28;20024;-77
2023/08/08 01:01:43;;;;;;;3.63;1.35;;;;;;;;;;5056324;28;20028;-76
2023/08/08 01:04:09;;;;;;;2.70;1.33;;;;;;;;;;5055418;28;20073;-77
2023/08/08 01:06:43;;;;;;;2.47;1.40;;;;;;;;;;5074293;28;20035;-76
2023/08/08 01:09:33;;;;;;;5.28;1.40;;;;;;;;;;5057731;28;20031;-76
2023/08/08 01:12:00;;;;;;;4.88;1.50;;;;;;;;;;5074944;28;20029;-76
2023/08/08 01:14:28;;;;;;;4.28;1.50;;;;;;;;;;5074630;28;20475;-76
2023/08/08 01:16:57;;;;;;;1.88;1.02;;;;;;;;;;5075306;28;20033;-75
2023/08/08 01:19:26;;;;;;;6.15;1.52;;;;;;;;;;5075741;28;20035;-75
2023/08/08 01:21:53;;;;;;;4.07;1.60;;;;;;;;;;5057605;28;20170;-75
2023/08/08 01:24:25;;;;;;;6.07;1.48;;;;;;;;;;5074982;28;20494;-75
2023/08/08 01:26:51;;;;;;;6.50;1.45;;;;;;;;;;5057819;28;20027;-75
2023/08/08 01:29:16;;;;;;;3.97;1.48;;;;;;;;;;5075556;28;20451;-75
2023/08/08 01:31:41;;;;;;;6.55;1.50;;;;;;;;;;5057355;28;20031;-75
2023/08/08 01:34:07;;;;;;;3.22;1.48;;;;;;;;;;5057056;28;20134;-75
2023/08/08 01:36:39;;;;;;;5.22;1.50;;;;;;;;;;5075307;28;20103;-75
2023/08/08 01:39:09;;;;;;;4.13;1.50;;;;;;;;;;5056904;28;20034;-75
2023/08/08 01:41:38;;;;;;;2.67;1.20;;;;;;;;;;5074240;28;20104;-75
2023/08/08 01:44:04;;;;;;;4.32;1.55;;;;;;;;;;5056116;28;20440;-75
2023/08/08 01:46:29;;;;;;;3.35;1.50;;;;;;;;;;5074686;28;20027;-75
2023/08/08 01:48:57;;;;;;;2.97;1.42;;;;;;;;;;5057374;28;20430;-75
2023/08/08 01:51:25;;;;;;;3.42;1.50;;;;;;;;;;5074680;28;20028;-75
2023/08/08 01:53:50;;;;;;;5.07;1.45;;;;;;;;;;5074207;28;20028;-75
2023/08/08 01:56:16;;;;;;;4.68;1.40;;;;;;;;;;5073822;28;20029;-75
2023/08/08 01:58:41;;;;;;;8.77;1.58;;;;;;;;;;5074038;28;20150;-76
2023/08/08 02:01:06;;;;;;;5.47;1.70;;;;;;;;;;5075380;28;20490;-76
2023/08/08 02:03:31;;;;;;;4.43;1.60;;;;;;;;;;5057936;28;20714;-76
2023/08/08 02:05:57;;;;;;;5.90;1.83;;;;;;;;;;5075556;28;20074;-76
2023/08/08 02:08:22;;;;;;;3.33;1.70;;;;;;;;;;5073659;28;20035;-76
2023/08/08 02:10:47;;;;;;;6.88;1.52;;;;;;;;;;5073728;28;20032;-77
2023/08/08 02:13:12;;;;;;;5.85;1.70;;;;;;;;;;5055770;28;20223;-76
2023/08/08 02:15:38;;;;;;;5.47;1.73;;;;;;;;;;5073896;28;20028;-76
2023/08/08 02:18:04;;;;;;;4.78;1.50;;;;;;;;;;5073145;28;20667;-76
2023/08/08 02:20:29;;;;;;;3.13;1.50;;;;;;;;;;5073715;28;20028;-75
2023/08/08 02:22:54;;;;;;;3.97;1.50;;;;;;;;;;5055226;28;20025;-76
2023/08/08 02:25:20;;;;;;;2.53;1.40;;;;;;;;;;5073689;28;20044;-76
2023/08/08 02:27:45;;;;;;;3.55;1.55;;;;;;;;;;5073495;28;20062;-76
2023/08/08 02:30:11;;;;;;;3.83;1.65;;;;;;;;;;5073384;28;20487;-77
2023/08/08 02:32:36;;;;;;;6.72;1.70;;;;;;;;;;5055637;28;20074;-77
2023/08/08 02:35:01;;;;;;;4.85;1.40;;;;;;;;;;5075107;28;20020;-76
2023/08/08 02:37:27;;;;;;;3.53;1.40;;;;;;;;;;5080599;28;20016;-76
2023/08/08 02:39:52;;;;;;;2.55;1.45;;;;;;;;;;5062809;28;20013;-76
2023/08/08 02:42:17;;;;;;;2.73;1.53;;;;;;;;;;5079681;28;20095;-76
2023/08/08 02:44:43;;;;;;;2.93;1.60;;;;;;;;;;5079683;28;20297;-77
2023/08/08 02:47:08;;;;;;;4.28;1.33;;;;;;;;;;5061799;28;20783;-76
2023/08/08 02:49:33;;;;;;;3.38;1.50;;;;;;;;;;5079814;28;20441;-76
2023/08/08 02:52:00;;;;;;;4.90;1.50;;;;;;;;;;5079717;28;20028;-75
2023/08/08 02:54:25;;;;;;;2.40;1.17;;;;;;;;;;5079540;28;20052;-76
2023/08/08 02:56:50;;;;;;;4.05;1.40;;;;;;;;;;5079498;28;20368;-76
2023/08/08 02:59:16;;;;;;;6.00;1.60;;;;;;;;;;5079485;28;20024;-76
2023/08/08 03:01:41;;;;;;;4.93;1.38;;;;;;;;;;5079825;28;20020;-76
2023/08/08 03:04:07;;;;;;;5.13;1.48;;;;;;;;;;5079534;28;20032;-76
2023/08/08 03:06:32;;;;;;;2.65;1.30;;;;;;;;;;5079725;28;20475;-76
2023/08/08 03:08:57;;;;;;;7.18;1.70;;;;;;;;;;5080529;28;20032;-75
2023/08/08 03:11:23;;;;;;;3.30;1.30;;;;;;;;;;5080648;28;20021;-76
2023/08/08 03:13:48;;;;;;;5.72;1.70;;;;;;;;;;5080441;28;20031;-76
2023/08/08 03:16:13;;;;;;;2.80;1.50;;;;;;;;;;5080550;28;20024;-76
2023/08/08 03:18:38;;;;;;;3.85;1.52;;;;;;;;;;5062742;28;20029;-76
2023/08/08 03:21:04;;;;;;;4.80;1.40;;;;;;;;;;5080387;28;20031;-75
2023/08/08 03:23:29;;;;;;;5.70;1.30;;;;;;;;;;5062717;28;20032;-77
2023/08/08 03:25:54;;;;;;;3.95;1.25;;;;;;;;;;5079683;28;20504;-77
2023/08/08 03:28:20;;;;;;;3.38;1.33;;;;;;;;;;5080157;28;20107;-77
2023/08/08 03:30:45;;;;;;;2.47;1.35;;;;;;;;;;5063508;28;20021;-77
2023/08/08 03:33:10;;;;;;;3.08;1.30;;;;;;;;;;5080056;28;20035;-77
2023/08/08 03:35:35;;;;;;;2.38;1.20;;;;;;;;;;5080274;28;20099;-77
2023/08/08 03:38:02;;;;;;;2.60;1.40;;;;;;;;;;5063187;28;20475;-77
2023/08/08 03:40:27;;;;;;;5.85;1.90;;;;;;;;;;5080425;28;20285;-76
2023/08/08 03:42:53;;;;;;;5.57;1.52;;;;;;;;;;5062848;28;20028;-77
2023/08/08 03:45:18;;;;;;;9.98;1.60;;;;;;;;;;5063174;28;20021;-77
2023/08/08 03:47:43;;;;;;;5.90;1.55;;;;;;;;;;5077734;28;20031;-77
2023/08/08 03:50:10;;;;;;;4.88;2.00;;;;;;;;;;5076781;28;20112;-77
2023/08/08 03:52:37;;;;;;;3.25;1.50;;;;;;;;;;5059198;28;20078;-76
2023/08/08 03:55:03;;;;;;;3.55;1.40;;;;;;;;;;5059662;28;20032;-77
2023/08/08 03:57:28;;;;;;;4.85;1.63;;;;;;;;;;5076987;28;20035;-77
2023/08/08 03:59:53;;;;;;;4.13;1.52;;;;;;;;;;5059969;28;20029;-77
2023/08/08 04:02:19;;;;;;;3.58;1.65;;;;;;;;;;5078004;28;20029;-77
2023/08/08 04:04:44;;;;;;;3.25;1.60;;;;;;;;;;5059624;28;20021;-77
2023/08/08 04:07:09;;;;;;;4.90;1.77;;;;;;;;;;5076506;28;20020;-77
2023/08/08 04:09:35;;;;;;;4.28;1.40;;;;;;;;;;5076307;28;20491;-76
2023/08/08 04:12:00;;;;;;;3.45;1.20;;;;;;;;;;5058399;28;20112;-76
2023/08/08 04:14:25;;;;;;;5.05;1.50;;;;;;;;;;5076932;28;20029;-76
2023/08/08 04:16:50;;;;;;;3.00;1.50;;;;;;;;;;5076244;28;20036;-77
2023/08/08 04:19:16;;;;;;;6.20;1.60;;;;;;;;;;5076192;28;20307;-76
2023/08/08 04:21:41;;;;;;;2.60;1.35;;;;;;;;;;5076153;28;20032;-77
2023/08/08 04:24:07;;;;;;;3.78;1.30;;;;;;;;;;5076782;28;20024;-77
2023/08/08 04:26:33;;;;;;;4.43;1.27;;;;;;;;;;5058981;28;20020;-77
2023/08/08 04:28:58;;;;;;;3.58;1.48;;;;;;;;;;5058477;28;20031;-77
2023/08/08 04:31:25;;;;;;;2.58;1.30;;;;;;;;;;5076096;28;20032;-76
2023/08/08 04:33:51;;;;;;;3.83;1.23;;;;;;;;;;5076030;28;20056;-78
2023/08/08 04:36:16;;;;;;;3.63;1.40;;;;;;;;;;5076082;28;20059;-76
2023/08/08 04:38:42;;;;;;;2.90;1.33;;;;;;;;;;5058695;28;20021;-77
2023/08/08 04:41:07;;;;;;;4.10;1.40;;;;;;;;;;5076078;28;20340;-76
2023/08/08 04:43:32;;;;;;;3.80;1.38;;;;;;;;;;5058743;28;20109;-76
2023/08/08 04:45:58;;;;;;;1.92;1.20;;;;;;;;;;5059373;28;20070;-77
2023/08/08 04:48:23;;;;;;;1.60;1.10;;;;;;;;;;5058468;28;20479;-77
2023/08/08 04:50:48;;;;;;;3.33;1.42;;;;;;;;;;5058630;28;20029;-76
2023/08/08 04:53:14;;;;;;;2.45;1.48;;;;;;;;;;5077756;28;20032;-77
2023/08/08 04:55:39;;;;;;;3.35;1.38;;;;;;;;;;5079246;28;20054;-77
2023/08/08 04:58:04;;;;;;;2.88;1.33;;;;;;;;;;5059481;28;20491;-77
2023/08/08 05:00:30;;;;;;;3.38;1.33;;;;;;;;;;5077258;28;20021;-76
2023/08/08 05:02:55;;;;;;;4.03;1.38;;;;;;;;;;5076431;28;20072;-76
2023/08/08 05:05:20;;;;;;;4.68;1.35;;;;;;;;;;5076521;28;20060;-77
2023/08/08 05:07:46;;;;;;;3.05;1.38;;;;;;;;;;5059647;28;20484;-77
2023/08/08 05:10:11;;;;;;;3.72;1.35;;;;;;;;;;5077544;28;20032;-77
2023/08/08 05:12:36;;;;;;;2.22;1.48;;;;;;;;;;5076447;28;20083;-76
2023/08/08 05:15:02;;;;;;;3.42;1.42;;;;;;;;;;5076058;28;20082;-77
2023/08/08 05:17:29;;;;;;;2.72;1.58;;;;;;;;;;5076140;28;20028;-77
2023/08/08 05:19:55;;;;;;;1.83;1.48;;;;;;;;;;5075766;28;20544;-75
2023/08/08 05:22:20;;;;;;;2.92;1.40;;;;;;;;;;5075972;28;20032;-77
2023/08/08 05:24:45;;;;;;;2.15;1.33;;;;;;;;;;5058398;28;20399;-75
2023/08/08 05:27:11;;;;;;;2.85;1.40;;;;;;;;;;5076308;28;20105;-75
2023/08/08 05:29:38;;;;;;;1.85;1.23;;;;;;;;;;5076169;28;20024;-76
2023/08/08 05:32:06;;;;;;;2.88;1.20;;;;;;;;;;5056869;28;20023;-77
2023/08/08 05:34:32;;;;;;;3.53;1.58;;;;;;;;;;5056611;28;20028;-75
2023/08/08 05:36:57;;;;;;;3.22;1.35;;;;;;;;;;5074358;28;20024;-76
2023/08/08 05:39:22;;;;;;;2.05;1.20;;;;;;;;;;5076419;28;20020;-76
2023/08/08 05:41:47;;;;;;;2.50;1.25;;;;;;;;;;5058424;28;20016;-76
2023/08/08 05:44:18;;;;;;;4.97;1.30;;;;;;;;;;5057081;28;20032;-76
2023/08/08 05:46:43;;;;;;;7.35;1.20;;;;;;;;;;5074762;28;20052;-77
2023/08/08 05:49:09;;;;;;;4.35;1.40;;;;;;;;;;5076008;28;20377;-75
2023/08/08 05:51:36;;;;;;;2.13;1.00;;;;;;;;;;5057395;28;20035;-77
2023/08/08 05:54:02;;;;;;;3.65;1.30;;;;;;;;;;5057009;28;20450;-78
2023/08/08 05:56:35;;;;;;;2.80;1.23;;;;;;;;;;5074694;28;20081;-76
2023/08/08 05:59:01;;;;;;;6.30;1.33;;;;;;;;;;5075500;28;20025;-77
2023/08/08 06:01:26;;;;;;;2.05;1.20;;;;;;;;;;5074952;28;20040;-78
2023/08/08 06:03:52;;;;;;;3.88;1.13;;;;;;;;;;5074991;28;20399;-77
2023/08/08 06:06:18;;;;;;;15.30;1.77;;;;;;;;;;5056499;28;20486;-78
2023/08/08 06:08:43;;;;;;;2.85;1.42;;;;;;;;;;5074640;28;20143;-77
2023/08/08 06:11:09;;;;;;;1.88;1.05;;;;;;;;;;5075282;28;20386;-78
2023/08/08 06:13:36;;;;;;;1.58;1.30;;;;;;;;;;5059953;28;20429;-78
2023/08/08 06:16:06;;;;;;;3.33;1.60;;;;;;;;;;5076277;28;20036;-80
2023/08/08 06:18:32;;;;;;;2.92;1.20;;;;;;;;;;5076023;28;20069;-76
2023/08/08 06:20:57;;;;;;;5.45;1.52;;;;;;;;;;5077495;28;20095;-75
2023/08/08 06:23:22;;;;;;;2.33;1.40;;;;;;;;;;5076683;28;20029;-74
2023/08/08 06:25:47;;;;;;;2.63;1.23;;;;;;;;;;5077234;28;20029;-74
2023/08/08 06:28:13;;;;;;;4.15;1.65;;;;;;;;;;5077881;28;20471;-75
2023/08/08 06:30:38;;;;;;;2.05;1.10;;;;;;;;;;5077243;28;20024;-74
2023/08/08 06:33:03;;;;;;;1.88;1.20;;;;;;;;;;5059945;28;20020;-76
2023/08/08 06:35:29;;;;;;;1.90;1.20;;;;;;;;;;5059300;28;20036;-75
2023/08/08 06:37:54;;;;;;;3.40;1.40;;;;;;;;;;5077169;28;20029;-75
2023/08/08 06:40:19;;;;;;;8.40;1.50;;;;;;;;;;5077489;28;20048;-74
2023/08/08 06:42:44;;;;;;;4.03;1.30;;;;;;;;;;5058708;28;20074;-75
2023/08/08 06:45:10;;;;;;;3.83;1.80;;;;;;;;;;5077266;28;20135;-76
2023/08/08 06:47:35;;;;;;;1.35;1.10;;;;;;;;;;5059596;28;20029;-75
2023/08/08 06:50:00;;;;;;;2.30;1.33;;;;;;;;;;5059607;28;20051;-75
2023/08/08 06:52:26;;;;;;;1.77;1.30;;;;;;;;;;5076898;28;20480;-75
2023/08/08 06:54:51;;;;;;;1.40;1.20;;;;;;;;;;5076976;28;20059;-75
2023/08/08 06:57:17;;;;;;;2.38;1.20;;;;;;;;;;5077446;28;20024;-75
2023/08/08 06:59:42;;;;;;;3.83;1.20;;;;;;;;;;5076692;28;20021;-75
2023/08/08 07:02:07;;;;;;;2.42;1.20;;;;;;;;;;5077168;28;20095;-75
2023/08/08 07:04:32;;;;;;;2.03;1.13;;;;;;;;;;5076695;28;20025;-75
2023/08/08 07:06:58;;;;;;;4.10;1.33;;;;;;;;;;5076957;28;20495;-76
2023/08/08 07:09:23;;;;;;;4.35;1.55;;;;;;;;;;5077078;28;20052;-75
2023/08/08 07:11:49;;;;;;;6.38;1.52;;;;;;;;;;5076898;28;20490;-75
2023/08/08 07:14:14;;;;;;;1.67;1.13;;;;;;;;;;5076735;28;20020;-76
2023/08/08 07:16:39;;;;;;;3.78;1.42;;;;;;;;;;5077290;28;20081;-75
2023/08/08 07:19:05;;;;;;;4.47;1.35;;;;;;;;;;5076979;28;20103;-75
2023/08/08 07:21:31;;;;;;;3.92;1.40;;;;;;;;;;5077115;28;20031;-74
2023/08/08 07:23:57;;;;;;;4.90;1.27;;;;;;;;;;5080616;28;20461;-76
2023/08/08 07:26:22;;;;;;;2.13;1.02;;;;;;;;;;5080695;28;20024;-75
2023/08/08 07:28:48;;;;;;;3.25;1.20;;;;;;;;;;5080801;28;20064;-75
2023/08/08 07:31:13;;;;;;;4.05;1.17;;;;;;;;;;5062494;28;20215;-76
2023/08/08 07:33:39;;;;;;;2.00;1.10;;;;;;;;;;5080095;28;20044;-74
2023/08/08 07:36:05;;;;;;;2.53;1.00;;;;;;;;;;5079734;28;20112;-76
2023/08/08 07:38:30;;;;;;;1.70;1.05;;;;;;;;;;5080240;28;20131;-75
2023/08/08 07:40:55;;;;;;;4.10;1.20;;;;;;;;;;5080348;28;20021;-75
2023/08/08 07:43:21;;;;;;;1.42;1.00;;;;;;;;;;5080199;28;20066;-79
2023/08/08 07:45:46;;;;;;;2.13;1.02;;;;;;;;;;5080612;28;20365;-75
2023/08/08 07:48:12;;;;;;;2.33;1.05;;;;;;;;;;5062253;28;20024;-75
2023/08/08 07:50:37;;;;;;;4.22;1.30;;;;;;;;;;5080320;28;20017;-75
2023/08/08 07:53:02;;;;;;;2.70;1.20;;;;;;;;;;5080487;28;20025;-76
2023/08/08 07:55:28;;;;;;;2.38;1.30;;;;;;;;;;5080655;28;20028;-74
2023/08/08 07:57:53;;;;;;;2.60;1.17;;;;;;;;;;5080645;28;20444;-75
2023/08/08 08:00:18;;;;;;;1.85;1.17;;;;;;;;;;5080903;28;20051;-75
2023/08/08 08:02:45;;;;;;;4.35;1.27;;;;;;;;;;5080633;28;20059;-77
2023/08/08 08:05:11;;;;;;;2.60;1.13;;;;;;;;;;5079863;28;20021;-78
2023/08/08 08:07:37;;;;;;;3.17;1.17;;;;;;;;;;5080046;28;20021;-74
2023/08/08 08:10:03;;;;;;;2.20;1.15;;;;;;;;;;5080491;28;20032;-75
2023/08/08 08:12:30;;;;;;;4.50;1.30;;;;;;;;;;5079674;28;20055;-75
2023/08/08 08:14:56;;;;;;;1.20;1.10;;;;;;;;;;5078797;28;20090;-74
2023/08/08 08:17:21;;;;;;;2.85;1.38;;;;;;;;;;5079036;28;20028;-76
2023/08/08 08:19:46;;;;;;;3.55;1.10;;;;;;;;;;5079109;28;20032;-75
2023/08/08 08:22:11;;;;;;;6.47;1.25;;;;;;;;;;5078163;28;20031;-76
2023/08/08 08:24:37;;;;;;;3.20;1.10;;;;;;;;;;5077501;28;20028;-76
2023/08/08 08:27:02;;;;;;;2.13;1.00;;;;;;;;;;5059373;28;20119;-76
2023/08/08 08:29:27;;;;;;;1.55;0.90;;;;;;;;;;5059666;28;20031;-76
2023/08/08 08:31:53;;;;;;;1.55;1.00;;;;;;;;;;5077150;28;20116;-76
2023/08/08 08:34:18;;;;;;;2.97;1.10;;;;;;;;;;5058368;28;20471;-75
2023/08/08 08:36:43;;;;;;;1.38;1.00;;;;;;;;;;5078079;28;20047;-76
2023/08/08 08:39:09;;;;;;;2.33;1.07;;;;;;;;;;5077481;28;20049;-75
2023/08/08 08:41:37;;;;;;;1.42;0.98;;;;;;;;;;5076968;28;20311;-74
2023/08/08 08:44:03;;;;;;;1.63;1.20;;;;;;;;;;5077271;28;20035;-75
2023/08/08 08:46:29;;;;;;;2.35;1.00;;;;;;;;;;5059704;28;20552;-76
2023/08/08 08:48:56;;;;;;;2.30;1.00;;;;;;;;;;5076184;28;20120;-75
2023/08/08 08:51:22;;;;;;;1.10;1.00;;;;;;;;;;5075466;28;20027;-75
2023/08/08 08:53:47;;;;;;;3.80;0.90;;;;;;;;;;5075449;28;20017;-75
2023/08/08 08:56:14;;;;;;;3.28;1.05;;;;;;;;;;5057879;28;20111;-75
2023/08/08 08:58:40;;;;;;;1.17;0.88;;;;;;;;;;5076735;28;20024;-75
2023/08/08 09:01:07;;;;;;;3.42;0.98;;;;;;;;;;5075367;28;20040;-77
2023/08/08 09:03:34;;;;;;;2.15;1.00;;;;;;;;;;5075115;28;20074;-74
2023/08/08 09:05:59;;;;;;;4.70;1.08;;;;;;;;;;5075448;28;20082;-74
2023/08/08 09:08:25;;;;;;;2.10;1.20;;;;;;;;;;5075307;28;20016;-75
2023/08/08 09:10:50;;;;;;;2.05;1.10;;;;;;;;;;5075440;28;20464;-73
2023/08/08 09:13:16;;;;;;;2.25;1.10;;;;;;;;;;5075472;28;20028;-73
2023/08/08 09:15:41;;;;;;;2.15;1.00;;;;;;;;;;5057177;28;20029;-74
2023/08/08 09:18:07;;;;;;;1.67;1.20;;;;;;;;;;5075599;28;20024;-74
2023/08/08 09:20:32;;;;;;;3.97;1.05;;;;;;;;;;5057539;28;20111;-74
2023/08/08 09:22:57;;;;;;;1.60;1.17;;;;;;;;;;5058019;28;20051;-73
2023/08/08 09:25:24;;;;;;;1.17;0.95;;;;;;;;;;5075457;28;20029;-74
2023/08/08 09:27:52;;;;;;;2.13;1.20;;;;;;;;;;5057575;28;20048;-73
2023/08/08 09:30:17;;;;;;;1.75;1.15;;;;;;;;;;5075344;28;20050;-73
2023/08/08 09:32:43;;;;;;;2.85;1.10;;;;;;;;;;5075145;28;20025;-74
2023/08/08 09:35:10;;;;;;;1.92;1.17;;;;;;;;;;5075684;28;20032;-75
2023/08/08 09:37:35;;;;;;;2.17;1.25;;;;;;;;;;5075421;28;20020;-75
2023/08/08 09:40:03;;;;;;;3.28;1.20;;;;;;;;;;5075110;28;20035;-75
2023/08/08 09:42:29;;;;;;;3.08;1.10;;;;;;;;;;5075158;28;20039;-75
2023/08/08 09:44:56;;;;;;;1.80;1.20;;;;;;;;;;5074400;28;20605;-74
2023/08/08 09:47:22;;;;;;;2.20;1.20;;;;;;;;;;5075336;28;20423;-75
2023/08/08 09:49:47;;;;;;;3.53;1.40;;;;;;;;;;5074919;28;20032;-74
2023/08/08 09:52:14;;;;;;;2.47;1.48;;;;;;;;;;5075037;28;20032;-73
2023/08/08 09:54:40;;;;;;;2.35;1.20;;;;;;;;;;5075104;28;20021;-74
2023/08/08 09:57:06;;;;;;;3.42;1.35;;;;;;;;;;5075352;28;20433;-74
2023/08/08 09:59:32;;;;;;;2.78;1.20;;;;;;;;;;5074916;28;20035;-74
2023/08/08 10:01:58;;;;;;;3.67;1.50;;;;;;;;;;5074667;28;20064;-73
2023/08/08 10:04:23;;;;;;;2.72;1.40;;;;;;;;;;5057736;28;20025;-74
2023/08/08 10:06:49;;;;;;;2.20;1.40;;;;;;;;;;5057466;28;20028;-74
2023/08/08 10:09:14;;;;;;;1.90;1.33;;;;;;;;;;5075521;28;20376;-74
2023/08/08 10:11:42;;;;;;;2.03;1.20;;;;;;;;;;5056773;28;20025;-74
2023/08/08 10:14:10;;;;;;;2.05;1.38;;;;;;;;;;5056905;28;20021;-73
2023/08/08 10:16:37;;;;;;;1.17;1.08;;;;;;;;;;5074477;28;20027;-75
2023/08/08 10:19:04;;;;;;;3.60;1.30;;;;;;;;;;5075091;28;20480;-77
2023/08/08 10:21:35;;;;;;;1.55;1.05;;;;;;;;;;5075051;28;20395;-73
2023/08/08 10:24:06;;;;;;;2.38;1.20;;;;;;;;;;5074455;28;20031;-74
2023/08/08 10:26:32;;;;;;;3.25;1.23;;;;;;;;;;5057350;28;20437;-74
2023/08/08 10:28:59;;;;;;;2.10;1.30;;;;;;;;;;5074925;28;20035;-74
2023/08/08 10:31:24;;;;;;;1.48;1.10;;;;;;;;;;5056505;28;20021;-73
2023/08/08 10:34:01;;;;;;;2.63;1.15;;;;;;;;;;5074924;28;20031;-74
2023/08/08 10:36:26;;;;;;;1.67;1.02;;;;;;;;;;5074527;28;20097;-74
2023/08/08 10:38:52;;;;;;;8.00;1.27;;;;;;;;;;5073817;28;20028;-74
2023/08/08 10:41:20;;;;;;;2.03;1.02;;;;;;;;;;5056515;28;20013;-74
2023/08/08 10:43:54;;;;;;;4.85;1.10;;;;;;;;;;5056902;28;20032;-74
2023/08/08 10:46:23;;;;;;;2.58;1.10;;;;;;;;;;5075111;28;20403;-75
2023/08/08 10:48:50;;;;;;;1.40;1.00;;;;;;;;;;5073350;28;20051;-72
2023/08/08 10:51:16;;;;;;;3.03;1.15;;;;;;;;;;5074697;28;20032;-75
2023/08/08 10:53:43;;;;;;;3.65;1.15;;;;;;;;;;5075145;28;20028;-74
2023/08/08 10:56:13;;;;;;;1.40;0.82;;;;;;;;;;5058441;28;20073;-74
2023/08/08 10:58:46;;;;;;;1.00;0.90;;;;;;;;;;5061415;28;20016;-74
2023/08/08 11:01:12;;;;;;;3.50;1.13;;;;;;;;;;5061327;28;20020;-73
2023/08/08 11:03:39;;;;;;;3.78;1.08;;;;;;;;;;5078955;28;20025;-73
2023/08/08 11:06:06;;;;;;;3.10;1.30;;;;;;;;;;5078751;28;20088;-75
2023/08/08 11:08:32;;;;;;;1.33;1.00;;;;;;;;;;5078895;28;20028;-74
2023/08/08 11:10:58;;;;;;;2.15;1.00;;;;;;;;;;5078704;28;20029;-73
2023/08/08 11:13:24;;;;;;;2.15;1.15;;;;;;;;;;5078887;28;20447;-72
2023/08/08 11:15:49;;;;;;;2.05;1.20;;;;;;;;;;5077850;28;20078;-73
2023/08/08 11:18:15;;;;;;;3.38;1.20;;;;;;;;;;5059977;28;20116;-73
2023/08/08 11:20:40;;;;;;;2.92;1.30;;;;;;;;;;5061569;28;20025;-74
2023/08/08 11:23:09;;;;;;;2.13;1.10;;;;;;;;;;5078815;28;20110;-73
2023/08/08 11:25:36;;;;;;;2.13;0.90;;;;;;;;;;5079328;28;20029;-73
2023/08/08 11:28:02;;;;;;;1.80;1.23;;;;;;;;;;5078117;28;20025;-72
2023/08/08 11:30:30;;;;;;;2.65;1.30;;;;;;;;;;5061293;28;20024;-74
2023/08/08 11:32:55;;;;;;;2.95;1.27;;;;;;;;;;5080068;28;20028;-73
2023/08/08 11:35:25;;;;;;;1.92;1.10;;;;;;;;;;5061607;28;20365;-75
2023/08/08 11:37:55;;;;;;;1.30;1.10;;;;;;;;;;5079623;28;20052;-75
2023/08/08 11:40:23;;;;;;;6.35;1.10;;;;;;;;;;5079703;28;20031;-74
2023/08/08 11:42:50;;;;;;;3.55;1.33;;;;;;;;;;5079278;28;20471;-74
2023/08/08 11:45:16;;;;;;;1.70;1.08;;;;;;;;;;5079207;28;20402;-74
2023/08/08 11:47:42;;;;;;;1.65;1.05;;;;;;;;;;5079827;28;20088;-74
2023/08/08 11:50:09;;;;;;;3.08;1.17;;;;;;;;;;5078376;28;20107;-72
2023/08/08 11:52:35;;;;;;;2.03;1.13;;;;;;;;;;5079835;28;20025;-73
2023/08/08 11:55:01;;;;;;;3.33;1.20;;;;;;;;;;5080002;28;20033;-74
2023/08/08 11:57:27;;;;;;;1.88;1.10;;;;;;;;;;5060352;28;20031;-73
2023/08/08 11:59:57;;;;;;;1.40;1.20;;;;;;;;;;5060694;28;20021;-74
2023/08/08 12:02:23;;;;;;;3.08;1.23;;;;;;;;;;5061602;28;20017;-75
2023/08/08 12:04:48;;;;;;;1.17;1.00;;;;;;;;;;5079227;28;20103;-74
2023/08/08 12:07:14;;;;;;;2.80;1.40;;;;;;;;;;5060442;28;20052;-75
2023/08/08 12:09:40;;;;;;;2.72;1.23;;;;;;;;;;5078453;28;20028;-73
2023/08/08 12:12:06;;;;;;;2.83;1.20;;;;;;;;;;5078419;28;20036;-74
2023/08/08 12:14:37;;;;;;;4.45;1.30;;;;;;;;;;5078536;28;20021;-74
2023/08/08 12:17:03;;;;;;;1.63;1.10;;;;;;;;;;5078384;28;20021;-74
2023/08/08 12:19:28;;;;;;;1.10;1.00;;;;;;;;;;5078939;28;20031;-74
2023/08/08 12:21:54;;;;;;;3.03;1.10;;;;;;;;;;5078045;28;20028;-74
2023/08/08 12:24:19;;;;;;;1.63;1.08;;;;;;;;;;5077914;28;20057;-73
2023/08/08 12:26:45;;;;;;;2.05;1.10;;;;;;;;;;5059686;28;20032;-74
2023/08/08 12:29:10;;;;;;;2.45;1.30;;;;;;;;;;5078019;28;20055;-75
2023/08/08 12:31:35;;;;;;;3.30;1.20;;;;;;;;;;5076781;28;20025;-75
2023/08/08 12:34:01;;;;;;;1.83;1.00;;;;;;;;;;5077421;28;20021;-75
2023/08/08 12:36:26;;;;;;;2.03;0.98;;;;;;;;;;5060414;28;20029;-74
2023/08/08 12:38:52;;;;;;;1.77;1.10;;;;;;;;;;5077942;28;20060;-75
2023/08/08 12:41:17;;;;;;;2.03;1.17;;;;;;;;;;5059924;28;20483;-74
2023/08/08 12:43:43;;;;;;;1.48;1.08;;;;;;;;;;5078214;28;20052;-74
2023/08/08 12:46:08;;;;;;;2.38;1.20;;;;;;;;;;5076696;28;20056;-73
2023/08/08 12:48:34;;;;;;;1.88;1.08;;;;;;;;;;5077623;28;20024;-74
2023/08/08 12:50:59;;;;;;;3.90;1.27;;;;;;;;;;5077166;28;20028;-78
2023/08/08 12:53:25;;;;;;;1.50;1.10;;;;;;;;;;5078321;28;20032;-74
2023/08/08 12:55:50;;;;;;;1.90;1.15;;;;;;;;;;5065924;28;20107;-78
2023/08/08 12:58:17;;;;;;;1.52;1.20;;;;;;;;;;5081783;28;20036;-78
2023/08/08 13:00:43;;;;;;;3.20;1.10;;;;;;;;;;5062380;28;20052;-73
2023/08/08 13:03:09;;;;;;;2.42;1.20;;;;;;;;;;5081454;28;20032;-79
2023/08/08 13:05:34;;;;;;;3.50;1.00;;;;;;;;;;5063646;28;20029;-77
2023/08/08 13:07:59;;;;;;;2.20;1.13;;;;;;;;;;5080633;28;20028;-79
2023/08/08 13:10:25;;;;;;;2.03;1.13;;;;;;;;;;5079399;28;20031;-76
2023/08/08 13:12:50;;;;;;;2.55;1.40;;;;;;;;;;5080880;28;20046;-82
2023/08/08 13:15:15;;;;;;;1.90;0.95;;;;;;;;;;5061841;28;20479;-78
2023/08/08 13:17:41;;;;;;;2.97;1.10;;;;;;;;;;5080523;28;20479;-77
2023/08/08 13:20:07;;;;;;;1.25;1.10;;;;;;;;;;5080224;28;20426;-77
2023/08/08 13:22:33;;;;;;;7.40;1.27;;;;;;;;;;5078806;28;20044;-76
2023/08/08 13:24:58;;;;;;;2.80;1.20;;;;;;;;;;5079565;28;20502;-77
2023/08/08 13:27:24;;;;;;;3.10;1.30;;;;;;;;;;5079912;28;20024;-77
2023/08/08 13:29:49;;;;;;;4.97;1.20;;;;;;;;;;5079174;28;20025;-75
2023/08/08 13:32:14;;;;;;;2.40;1.10;;;;;;;;;;5058322;28;20028;-78
2023/08/08 13:34:39;;;;;;;9.27;1.17;;;;;;;;;;5078190;28;20036;-76
2023/08/08 13:37:05;;;;;;;1.10;1.00;;;;;;;;;;5080061;28;20039;-80
2023/08/08 13:39:30;;;;;;;3.30;1.27;;;;;;;;;;5076940;28;20052;-76
2023/08/08 13:41:55;;;;;;;1.77;1.00;;;;;;;;;;5076167;28;20020;-78
2023/08/08 13:44:20;;;;;;;4.15;1.27;;;;;;;;;;5060323;28;20256;-78
2023/08/08 13:46:46;;;;;;;2.72;1.20;;;;;;;;;;5077793;28;20475;-77
2023/08/08 13:49:11;;;;;;;1.35;1.10;;;;;;;;;;5077898;28;20021;-78
2023/08/08 13:51:37;;;;;;;1.48;1.13;;;;;;;;;;5058165;28;20050;-78
2023/08/08 13:54:02;;;;;;;2.75;1.10;;;;;;;;;;5060788;28;20194;-78
2023/08/08 13:56:27;;;;;;;3.70;1.10;;;;;;;;;;5076287;28;20480;-76
2023/08/08 13:58:53;;;;;;;1.73;1.25;;;;;;;;;;5076825;28;20101;-76
2023/08/08 14:01:18;;;;;;;1.98;1.15;;;;;;;;;;5060127;28;20047;-78
2023/08/08 14:03:44;;;;;;;3.83;1.20;;;;;;;;;;5060136;28;20043;-78
2023/08/08 14:06:10;;;;;;;2.40;1.20;;;;;;;;;;5077733;28;20261;-79
2023/08/08 14:08:35;;;;;;;2.88;1.38;;;;;;;;;;5059679;28;20044;-79
2023/08/08 14:11:00;;;;;;;2.50;1.38;;;;;;;;;;5076658;28;20537;-78
2023/08/08 14:13:26;;;;;;;2.83;1.20;;;;;;;;;;5077734;28;20032;-79
2023/08/08 14:15:51;;;;;;;3.17;1.20;;;;;;;;;;5060408;28;20028;-76
2023/08/08 14:18:17;;;;;;;3.20;1.30;;;;;;;;;;5077175;28;20476;-77
2023/08/08 14:20:42;;;;;;;3.25;1.10;;;;;;;;;;5078248;28;20021;-79
2023/08/08 14:23:08;;;;;;;3.28;1.38;;;;;;;;;;5075911;28;20036;-77
2023/08/08 14:25:33;;;;;;;2.42;1.45;;;;;;;;;;5075894;28;20040;-78
2023/08/08 14:27:59;;;;;;;2.35;1.10;;;;;;;;;;5075433;28;20073;-77
2023/08/08 14:30:27;;;;;;;5.50;1.40;;;;;;;;;;5077490;28;20032;-78
2023/08/08 14:32:53;;;;;;;1.50;1.20;;;;;;;;;;5077776;28;20017;-80
2023/08/08 14:35:19;;;;;;;1.50;1.10;;;;;;;;;;5061447;28;20066;-77